Time;durP1;ratioP1;P1;durP2;ratioP2;P2;SDS_P1;SDS_P2;PMS_P1;PMS_P2;Temp;Humidity;BMP_temperature;BMP_pressure;BME280_temperature;BME280_humidity;BME280_pressure;Samples;Min_cycle;Max_cycle;Signal;HPM_P1;HPM_P2
2024/01/19 00:00:57;;;;;;;38.40;16.50;;;;;;;;;;4937126;29;20260;-71
2024/01/19 00:03:27;;;;;;;31.67;16.70;;;;;;;;;;4927168;29;20775;-70
2024/01/19 00:05:55;;;;;;;31.55;15.38;;;;;;;;;;4921962;29;20308;-70
2024/01/19 00:08:23;;;;;;;23.45;14.07;;;;;;;;;;4924545;29;20280;-70
2024/01/19 00:10:52;;;;;;;34.65;16.85;;;;;;;;;;4916266;29;20252;-71
2024/01/19 00:13:20;;;;;;;28.15;15.57;;;;;;;;;;4914762;29;20310;-70
2024/01/19 00:15:48;;;;;;;27.65;14.60;;;;;;;;;;4923325;29;20284;-72
2024/01/19 00:18:16;;;;;;;27.17;15.38;;;;;;;;;;4930344;29;20283;-70
2024/01/19 00:20:46;;;;;;;37.92;15.55;;;;;;;;;;4933143;29;20261;-71
2024/01/19 00:23:14;;;;;;;36.05;17.10;;;;;;;;;;4927615;29;20261;-70
2024/01/19 00:25:42;;;;;;;31.83;17.10;;;;;;;;;;4941234;29;20308;-71
2024/01/19 00:28:11;;;;;;;36.58;16.80;;;;;;;;;;4929472;29;20292;-70
2024/01/19 00:30:39;;;;;;;30.77;15.98;;;;;;;;;;4930385;29;20291;-71
2024/01/19 00:33:07;;;;;;;32.63;15.45;;;;;;;;;;4940897;29;20287;-71
2024/01/19 00:35:35;;;;;;;36.15;17.58;;;;;;;;;;4923342;29;20711;-70
2024/01/19 00:38:05;;;;;;;35.28;17.80;;;;;;;;;;4934088;29;20284;-70
2024/01/19 00:40:33;;;;;;;37.70;18.70;;;;;;;;;;4935527;29;20279;-71
2024/01/19 00:43:01;;;;;;;32.10;15.57;;;;;;;;;;4925229;29;20268;-71
2024/01/19 00:45:30;;;;;;;30.40;17.23;;;;;;;;;;4929658;29;20304;-71
2024/01/19 00:47:58;;;;;;;38.40;16.63;;;;;;;;;;4941719;29;20378;-71
2024/01/19 00:50:26;;;;;;;30.13;15.25;;;;;;;;;;4939394;29;20284;-70
2024/01/19 00:52:55;;;;;;;31.80;15.73;;;;;;;;;;4930976;29;20276;-71
2024/01/19 00:55:24;;;;;;;27.08;14.23;;;;;;;;;;4929628;29;20283;-71
2024/01/19 00:57:53;;;;;;;26.25;15.52;;;;;;;;;;4926579;29;20688;-71
2024/01/19 01:00:21;;;;;;;27.17;16.25;;;;;;;;;;4924366;29;20269;-70
2024/01/19 01:02:49;;;;;;;33.33;16.55;;;;;;;;;;4904454;29;20687;-71
2024/01/19 01:05:19;;;;;;;44.55;16.08;;;;;;;;;;4936252;29;20730;-71
2024/01/19 01:07:48;;;;;;;37.30;17.15;;;;;;;;;;4905847;29;20264;-71
2024/01/19 01:10:16;;;;;;;32.35;15.85;;;;;;;;;;4926662;29;20280;-70
2024/01/19 01:12:45;;;;;;;30.75;14.38;;;;;;;;;;4940746;29;20268;-70
2024/01/19 01:15:14;;;;;;;24.83;14.10;;;;;;;;;;4932762;29;20256;-71
2024/01/19 01:17:42;;;;;;;37.70;17.10;;;;;;;;;;4924419;29;20261;-72
2024/01/19 01:20:11;;;;;;;34.22;14.93;;;;;;;;;;4928819;29;20807;-71
2024/01/19 01:22:39;;;;;;;33.55;15.93;;;;;;;;;;4935387;29;20296;-72
2024/01/19 01:25:07;;;;;;;35.58;18.23;;;;;;;;;;4927547;29;20266;-71
2024/01/19 01:27:35;;;;;;;33.80;15.55;;;;;;;;;;4926197;29;20288;-70
2024/01/19 01:30:07;;;;;;;32.08;15.50;;;;;;;;;;4937789;29;20208;-70
2024/01/19 01:32:36;;;;;;;28.23;15.80;;;;;;;;;;4908836;29;20559;-70
2024/01/19 01:35:04;;;;;;;33.55;15.80;;;;;;;;;;4928265;29;20256;-70
2024/01/19 01:37:32;;;;;;;35.45;17.38;;;;;;;;;;4900688;29;20211;-69
2024/01/19 01:40:01;;;;;;;35.92;17.05;;;;;;;;;;4911016;29;20731;-71
2024/01/19 01:42:30;;;;;;;31.25;16.30;;;;;;;;;;4940319;29;20287;-70
2024/01/19 01:44:58;;;;;;;30.17;13.50;;;;;;;;;;4927727;29;20200;-70
2024/01/19 01:47:28;;;;;;;27.38;14.05;;;;;;;;;;4930516;29;20271;-69
2024/01/19 01:49:56;;;;;;;25.80;14.68;;;;;;;;;;4921699;29;20657;-70
2024/01/19 01:52:24;;;;;;;25.95;13.35;;;;;;;;;;4922535;29;20208;-69
2024/01/19 01:54:53;;;;;;;21.27;13.25;;;;;;;;;;4928248;29;20204;-69
2024/01/19 01:57:21;;;;;;;27.65;13.07;;;;;;;;;;4939967;29;20559;-70
2024/01/19 01:59:50;;;;;;;30.05;14.70;;;;;;;;;;4924683;29;20206;-69
2024/01/19 02:02:18;;;;;;;27.65;16.00;;;;;;;;;;4941981;29;20303;-73
2024/01/19 02:04:48;;;;;;;24.33;13.80;;;;;;;;;;4927302;29;20265;-71
2024/01/19 02:07:16;;;;;;;27.45;13.75;;;;;;;;;;4919714;29;20287;-70
2024/01/19 02:09:45;;;;;;;25.27;13.70;;;;;;;;;;4915810;29;20265;-70
2024/01/19 02:12:14;;;;;;;28.17;14.48;;;;;;;;;;4928717;29;20288;-72
2024/01/19 02:14:45;;;;;;;22.92;12.50;;;;;;;;;;4911164;29;20272;-70
2024/01/19 02:17:13;;;;;;;21.55;11.70;;;;;;;;;;4927956;29;20241;-71
2024/01/19 02:19:41;;;;;;;27.45;13.43;;;;;;;;;;4943896;29;20256;-70
2024/01/19 02:22:11;;;;;;;24.38;12.98;;;;;;;;;;4930088;29;20257;-71
2024/01/19 02:24:40;;;;;;;23.25;11.60;;;;;;;;;;4929556;29;20293;-71
2024/01/19 02:27:09;;;;;;;19.48;12.15;;;;;;;;;;4932891;29;20272;-71
2024/01/19 02:29:37;;;;;;;26.67;14.68;;;;;;;;;;4944961;29;20264;-71
2024/01/19 02:32:05;;;;;;;23.38;12.52;;;;;;;;;;4929270;29;20280;-71
2024/01/19 02:34:34;;;;;;;26.27;13.43;;;;;;;;;;4928573;29;20548;-71
2024/01/19 02:37:02;;;;;;;31.13;12.75;;;;;;;;;;4928204;29;20257;-71
2024/01/19 02:39:30;;;;;;;25.13;13.45;;;;;;;;;;4940895;29;20260;-71
2024/01/19 02:42:00;;;;;;;27.48;14.63;;;;;;;;;;4929745;29;20265;-73
2024/01/19 02:44:28;;;;;;;27.20;14.70;;;;;;;;;;4925262;29;20344;-71
2024/01/19 02:46:56;;;;;;;30.50;14.63;;;;;;;;;;4917648;29;20296;-71
2024/01/19 02:49:24;;;;;;;34.90;18.10;;;;;;;;;;4913112;29;20212;-70
2024/01/19 02:51:52;;;;;;;31.52;14.45;;;;;;;;;;4936404;29;20281;-70
2024/01/19 02:54:21;;;;;;;25.35;12.68;;;;;;;;;;4929788;29;20284;-71
2024/01/19 02:56:49;;;;;;;22.35;12.50;;;;;;;;;;4938925;29;20257;-73
2024/01/19 02:59:18;;;;;;;25.48;12.38;;;;;;;;;;4941209;29;20266;-71
2024/01/19 03:01:47;;;;;;;31.90;12.35;;;;;;;;;;4935317;29;20277;-70
2024/01/19 03:04:15;;;;;;;25.75;13.95;;;;;;;;;;4930613;29;20257;-70
2024/01/19 03:06:43;;;;;;;55.17;29.35;;;;;;;;;;4940658;29;20300;-70
2024/01/19 03:09:11;;;;;;;30.20;14.73;;;;;;;;;;4939560;29;20265;-71
2024/01/19 03:11:39;;;;;;;30.30;18.23;;;;;;;;;;4941005;29;20287;-70
2024/01/19 03:14:08;;;;;;;28.50;13.90;;;;;;;;;;4947863;29;20247;-70
2024/01/19 03:16:41;;;;;;;23.27;13.48;;;;;;;;;;4946283;29;20275;-71
2024/01/19 03:19:09;;;;;;;27.75;12.68;;;;;;;;;;4940769;29;20277;-71
2024/01/19 03:21:38;;;;;;;29.05;12.70;;;;;;;;;;4930577;29;20257;-71
2024/01/19 03:24:06;;;;;;;30.42;12.77;;;;;;;;;;4937704;29;20313;-71
2024/01/19 03:26:34;;;;;;;17.85;12.05;;;;;;;;;;4927448;29;20300;-70
2024/01/19 03:29:03;;;;;;;32.55;12.02;;;;;;;;;;4944061;29;20256;-70
2024/01/19 03:31:31;;;;;;;18.85;12.00;;;;;;;;;;4917655;29;20280;-70
2024/01/19 03:34:00;;;;;;;35.78;14.90;;;;;;;;;;4937726;29;20692;-71
2024/01/19 03:36:29;;;;;;;19.92;11.70;;;;;;;;;;4930684;29;20252;-71
2024/01/19 03:38:57;;;;;;;34.28;14.32;;;;;;;;;;4945601;29;20276;-71
2024/01/19 03:41:25;;;;;;;29.20;13.45;;;;;;;;;;4934197;29;20611;-71
2024/01/19 03:43:53;;;;;;;28.13;14.65;;;;;;;;;;4929792;29;20272;-71
2024/01/19 03:46:21;;;;;;;21.48;12.40;;;;;;;;;;4942943;29;20300;-71
2024/01/19 03:48:50;;;;;;;18.88;11.00;;;;;;;;;;4928460;29;20350;-71
2024/01/19 03:51:19;;;;;;;24.73;13.05;;;;;;;;;;4936821;29;20323;-70
2024/01/19 03:53:47;;;;;;;31.50;15.50;;;;;;;;;;4926373;29;20284;-71
2024/01/19 03:56:16;;;;;;;29.88;13.93;;;;;;;;;;4931331;29;20957;-71
2024/01/19 03:58:44;;;;;;;28.65;13.20;;;;;;;;;;4910709;29;20284;-71
2024/01/19 04:01:13;;;;;;;24.85;12.10;;;;;;;;;;4935051;29;20287;-71
2024/01/19 04:03:41;;;;;;;35.03;14.93;;;;;;;;;;4945045;29;20311;-69
2024/01/19 04:06:09;;;;;;;28.52;14.45;;;;;;;;;;4944265;29;20631;-72
2024/01/19 04:08:39;;;;;;;32.70;14.35;;;;;;;;;;4934502;29;20292;-70
2024/01/19 04:11:07;;;;;;;18.95;11.15;;;;;;;;;;4938476;29;20283;-70
2024/01/19 04:13:35;;;;;;;19.85;11.63;;;;;;;;;;4944840;29;20292;-70
2024/01/19 04:16:05;;;;;;;26.17;11.55;;;;;;;;;;4945247;29;20287;-71
2024/01/19 04:18:33;;;;;;;18.88;12.05;;;;;;;;;;4925652;29;20280;-69
2024/01/19 04:21:01;;;;;;;18.45;12.45;;;;;;;;;;4931041;29;20289;-70
2024/01/19 04:23:29;;;;;;;20.92;11.80;;;;;;;;;;4928414;29;20264;-69
2024/01/19 04:25:59;;;;;;;25.73;12.95;;;;;;;;;;4944251;29;20265;-69
2024/01/19 04:28:27;;;;;;;20.20;12.40;;;;;;;;;;4944937;29;20352;-70
2024/01/19 04:30:55;;;;;;;21.05;12.45;;;;;;;;;;4906634;29;20253;-69
2024/01/19 04:33:23;;;;;;;22.35;11.90;;;;;;;;;;4938701;29;20284;-69
2024/01/19 04:35:52;;;;;;;21.30;11.20;;;;;;;;;;4935040;29;20292;-70
2024/01/19 04:38:20;;;;;;;25.98;13.63;;;;;;;;;;4926977;29;20262;-70
2024/01/19 04:40:49;;;;;;;26.10;12.30;;;;;;;;;;4932756;29;20353;-72
2024/01/19 04:43:18;;;;;;;23.55;12.93;;;;;;;;;;4944422;29;20629;-69
2024/01/19 04:45:47;;;;;;;23.67;14.27;;;;;;;;;;4934983;29;20280;-70
2024/01/19 04:48:15;;;;;;;19.17;11.73;;;;;;;;;;4944189;29;20701;-70
2024/01/19 04:50:43;;;;;;;21.67;12.68;;;;;;;;;;4921683;29;20257;-69
2024/01/19 04:53:11;;;;;;;22.23;13.88;;;;;;;;;;4941463;29;20260;-70
2024/01/19 04:55:39;;;;;;;24.75;11.80;;;;;;;;;;4940136;29;20276;-70
2024/01/19 04:58:08;;;;;;;30.33;14.48;;;;;;;;;;4931848;29;20746;-70
2024/01/19 05:00:37;;;;;;;31.63;14.73;;;;;;;;;;4944382;29;20313;-69
2024/01/19 05:03:06;;;;;;;25.85;15.60;;;;;;;;;;4927410;29;20312;-71
2024/01/19 05:05:34;;;;;;;26.50;13.82;;;;;;;;;;4928292;29;20617;-70
2024/01/19 05:08:02;;;;;;;23.50;15.43;;;;;;;;;;4929393;29;20308;-70
2024/01/19 05:10:31;;;;;;;27.38;15.07;;;;;;;;;;4945061;29;20280;-70
2024/01/19 05:13:00;;;;;;;23.75;13.75;;;;;;;;;;4912287;29;20273;-70
2024/01/19 05:15:28;;;;;;;22.17;11.98;;;;;;;;;;4912611;29;20265;-69
2024/01/19 05:17:58;;;;;;;21.98;11.95;;;;;;;;;;4920813;29;20283;-72
2024/01/19 05:20:26;;;;;;;30.40;14.43;;;;;;;;;;4945122;29;20615;-69
2024/01/19 05:22:54;;;;;;;24.15;13.55;;;;;;;;;;4929802;29;20337;-70
2024/01/19 05:25:22;;;;;;;21.70;12.38;;;;;;;;;;4913047;29;20265;-69
2024/01/19 05:27:53;;;;;;;20.92;13.10;;;;;;;;;;4937340;29;20280;-70
2024/01/19 05:30:21;;;;;;;22.05;12.90;;;;;;;;;;4930318;29;20248;-71
2024/01/19 05:32:49;;;;;;;29.95;12.38;;;;;;;;;;4929178;29;20296;-70
2024/01/19 05:35:19;;;;;;;27.65;12.75;;;;;;;;;;4931557;29;20260;-71
2024/01/19 05:37:47;;;;;;;23.60;13.77;;;;;;;;;;4944343;29;20265;-71
2024/01/19 05:40:16;;;;;;;22.50;12.40;;;;;;;;;;4939787;29;20308;-72
2024/01/19 05:42:44;;;;;;;21.05;12.60;;;;;;;;;;4912252;29;20498;-72
2024/01/19 05:45:12;;;;;;;28.13;14.05;;;;;;;;;;4937233;29;20302;-72
2024/01/19 05:47:41;;;;;;;17.92;11.88;;;;;;;;;;4936921;29;20273;-72
2024/01/19 05:50:10;;;;;;;23.55;11.73;;;;;;;;;;4932691;29;20615;-71
2024/01/19 05:52:39;;;;;;;23.13;12.60;;;;;;;;;;4924686;29;20280;-70
2024/01/19 05:55:09;;;;;;;26.92;14.57;;;;;;;;;;4944934;29;20280;-70
2024/01/19 05:57:38;;;;;;;32.03;13.05;;;;;;;;;;4927813;29;20313;-70
2024/01/19 06:00:07;;;;;;;28.08;12.88;;;;;;;;;;4933738;29;20286;-70
2024/01/19 06:02:39;;;;;;;23.67;12.40;;;;;;;;;;4940555;29;20292;-70
2024/01/19 06:05:08;;;;;;;18.95;11.35;;;;;;;;;;4946637;29;20317;-69
2024/01/19 06:07:36;;;;;;;27.45;13.23;;;;;;;;;;4925275;29;20679;-69
2024/01/19 06:10:07;;;;;;;23.83;13.35;;;;;;;;;;4917710;29;20280;-70
2024/01/19 06:12:35;;;;;;;26.17;11.55;;;;;;;;;;4915088;29;20261;-71
2024/01/19 06:15:03;;;;;;;21.80;12.75;;;;;;;;;;4944403;29;20285;-71
2024/01/19 06:17:32;;;;;;;17.88;11.82;;;;;;;;;;4937242;29;20261;-71
2024/01/19 06:20:01;;;;;;;24.17;13.77;;;;;;;;;;4920725;29;20633;-70
2024/01/19 06:22:29;;;;;;;27.20;15.95;;;;;;;;;;4943684;29;20718;-72
2024/01/19 06:24:57;;;;;;;26.33;15.02;;;;;;;;;;4929479;29;20260;-71
2024/01/19 06:27:27;;;;;;;32.20;15.38;;;;;;;;;;4932392;29;20276;-72
2024/01/19 06:29:55;;;;;;;28.25;14.93;;;;;;;;;;4944015;29;20321;-72
2024/01/19 06:32:23;;;;;;;28.45;16.98;;;;;;;;;;4944453;29;20256;-69
2024/01/19 06:34:51;;;;;;;41.45;20.90;;;;;;;;;;4949064;29;20340;-70
2024/01/19 06:37:19;;;;;;;34.33;17.17;;;;;;;;;;4942900;29;20287;-71
2024/01/19 06:39:48;;;;;;;32.42;18.50;;;;;;;;;;4947748;29;20674;-71
2024/01/19 06:42:18;;;;;;;29.98;14.98;;;;;;;;;;4923459;29;20327;-71
2024/01/19 06:44:47;;;;;;;29.15;14.23;;;;;;;;;;4931677;29;20288;-70
2024/01/19 06:47:18;;;;;;;30.70;16.00;;;;;;;;;;4942990;29;20744;-71
2024/01/19 06:49:47;;;;;;;31.85;16.15;;;;;;;;;;4946881;29;20773;-71
2024/01/19 06:52:16;;;;;;;33.22;17.48;;;;;;;;;;4924319;29;20287;-70
2024/01/19 06:54:44;;;;;;;30.20;15.63;;;;;;;;;;4927108;29;20699;-72
2024/01/19 06:57:12;;;;;;;29.20;16.45;;;;;;;;;;4926577;29;20284;-71
2024/01/19 06:59:40;;;;;;;25.98;14.80;;;;;;;;;;4927867;29;20660;-70
2024/01/19 07:02:10;;;;;;;24.75;14.65;;;;;;;;;;4940254;29;20297;-71
2024/01/19 07:04:38;;;;;;;29.17;15.88;;;;;;;;;;4932757;29;20256;-72
2024/01/19 07:07:06;;;;;;;35.95;17.13;;;;;;;;;;4935155;29;20280;-71
2024/01/19 07:09:36;;;;;;;30.92;19.13;;;;;;;;;;4927549;29;20285;-71
2024/01/19 07:12:04;;;;;;;30.85;17.48;;;;;;;;;;4933779;29;20299;-71
2024/01/19 07:14:33;;;;;;;34.53;16.65;;;;;;;;;;4927549;29;20299;-71
2024/01/19 07:17:01;;;;;;;34.63;16.35;;;;;;;;;;4927798;29;20633;-71
2024/01/19 07:19:30;;;;;;;36.72;18.60;;;;;;;;;;4927697;29;20253;-70
2024/01/19 07:21:58;;;;;;;43.95;19.85;;;;;;;;;;4933319;29;20260;-72
2024/01/19 07:24:32;;;;;;;28.15;14.85;;;;;;;;;;4929053;29;20257;-70
2024/01/19 07:27:00;;;;;;;35.55;15.65;;;;;;;;;;4923948;29;20252;-70
2024/01/19 07:29:28;;;;;;;30.08;18.27;;;;;;;;;;4937218;29;20300;-70
2024/01/19 07:31:56;;;;;;;38.35;19.35;;;;;;;;;;4933143;29;20260;-72
2024/01/19 07:34:25;;;;;;;28.13;16.05;;;;;;;;;;4943397;29;20205;-71
2024/01/19 07:36:54;;;;;;;33.65;17.30;;;;;;;;;;4938039;29;20292;-71
2024/01/19 07:39:26;;;;;;;35.67;17.92;;;;;;;;;;4944307;29;20692;-71
2024/01/19 07:41:54;;;;;;;37.83;18.88;;;;;;;;;;4934864;29;20282;-70
2024/01/19 07:44:22;;;;;;;42.03;19.23;;;;;;;;;;4939721;29;20296;-71
2024/01/19 07:46:50;;;;;;;34.63;17.58;;;;;;;;;;4930253;29;20253;-71
2024/01/19 07:49:21;;;;;;;35.25;16.95;;;;;;;;;;4937557;29;20288;-72
2024/01/19 07:51:49;;;;;;;29.30;15.85;;;;;;;;;;4938611;29;20275;-72
2024/01/19 07:54:20;;;;;;;31.20;16.23;;;;;;;;;;4945730;29;20262;-72
2024/01/19 07:56:49;;;;;;;35.90;17.63;;;;;;;;;;4928127;29;20830;-71
2024/01/19 07:59:17;;;;;;;33.13;16.90;;;;;;;;;;4926422;29;20215;-73
2024/01/19 08:01:45;;;;;;;32.17;16.10;;;;;;;;;;4928997;29;20279;-71
2024/01/19 08:04:13;;;;;;;32.30;17.23;;;;;;;;;;4925264;29;20193;-70
2024/01/19 08:06:41;;;;;;;39.17;19.02;;;;;;;;;;4930144;29;20224;-73
2024/01/19 08:09:11;;;;;;;31.65;16.70;;;;;;;;;;4921039;29;20213;-72
2024/01/19 08:11:41;;;;;;;30.98;16.70;;;;;;;;;;4923607;29;20212;-72
2024/01/19 08:14:09;;;;;;;30.92;16.50;;;;;;;;;;4929819;29;20209;-71
2024/01/19 08:16:37;;;;;;;31.77;17.35;;;;;;;;;;4924834;29;20220;-72
2024/01/19 08:19:06;;;;;;;33.53;16.60;;;;;;;;;;4933526;29;20196;-72
2024/01/19 08:21:34;;;;;;;29.00;15.75;;;;;;;;;;4931506;29;20204;-72
2024/01/19 08:24:02;;;;;;;30.02;16.08;;;;;;;;;;4927108;29;20193;-72
2024/01/19 08:26:31;;;;;;;25.23;15.98;;;;;;;;;;4922297;29;20206;-72
2024/01/19 08:29:01;;;;;;;27.27;15.70;;;;;;;;;;4923053;29;21001;-71
2024/01/19 08:31:30;;;;;;;32.20;18.10;;;;;;;;;;4910186;29;20331;-71
2024/01/19 08:33:58;;;;;;;29.05;17.17;;;;;;;;;;4928322;29;20193;-70
2024/01/19 08:36:26;;;;;;;31.17;17.20;;;;;;;;;;4904556;29;20205;-71
2024/01/19 08:38:55;;;;;;;33.90;18.70;;;;;;;;;;4928037;29;20194;-70
2024/01/19 08:41:24;;;;;;;35.80;17.40;;;;;;;;;;4921889;29;20255;-70
2024/01/19 08:43:53;;;;;;;34.40;16.65;;;;;;;;;;4928413;29;20229;-70
2024/01/19 08:46:22;;;;;;;34.80;18.92;;;;;;;;;;4902582;29;20197;-71
2024/01/19 08:48:50;;;;;;;41.47;21.23;;;;;;;;;;4930184;29;20221;-72
2024/01/19 08:51:22;;;;;;;30.33;18.15;;;;;;;;;;4922810;29;20211;-71
2024/01/19 08:53:50;;;;;;;31.02;15.65;;;;;;;;;;4923452;29;20193;-71
2024/01/19 08:56:21;;;;;;;39.20;19.05;;;;;;;;;;4935538;29;20217;-71
2024/01/19 08:58:50;;;;;;;39.08;18.58;;;;;;;;;;4921699;29;20657;-71
2024/01/19 09:01:18;;;;;;;32.20;17.83;;;;;;;;;;4910844;29;20266;-72
2024/01/19 09:03:48;;;;;;;39.63;22.20;;;;;;;;;;4929789;29;20238;-72
2024/01/19 09:06:17;;;;;;;32.70;20.80;;;;;;;;;;4931613;29;20220;-72
2024/01/19 09:08:45;;;;;;;29.15;17.55;;;;;;;;;;4923319;29;20229;-72
2024/01/19 09:11:13;;;;;;;31.88;18.00;;;;;;;;;;4921227;29;20791;-69
2024/01/19 09:13:41;;;;;;;30.00;16.77;;;;;;;;;;4940185;29;20261;-69
2024/01/19 09:16:10;;;;;;;34.53;20.27;;;;;;;;;;4939050;29;20315;-70
2024/01/19 09:18:39;;;;;;;35.35;19.42;;;;;;;;;;4930943;29;20215;-70
2024/01/19 09:21:09;;;;;;;35.30;19.45;;;;;;;;;;4924389;29;20200;-71
2024/01/19 09:23:37;;;;;;;32.97;18.92;;;;;;;;;;4911148;29;20194;-71
2024/01/19 09:26:06;;;;;;;32.67;18.73;;;;;;;;;;4915278;29;20646;-73
2024/01/19 09:28:34;;;;;;;29.95;16.75;;;;;;;;;;4928064;29;20280;-72
2024/01/19 09:31:02;;;;;;;35.58;19.00;;;;;;;;;;4927186;29;20304;-71
2024/01/19 09:33:30;;;;;;;27.90;16.65;;;;;;;;;;4933555;29;20276;-72
2024/01/19 09:35:59;;;;;;;33.30;19.52;;;;;;;;;;4928830;29;20215;-71
2024/01/19 09:38:28;;;;;;;31.77;18.77;;;;;;;;;;4921801;29;20671;-71
2024/01/19 09:41:04;;;;;;;33.72;19.75;;;;;;;;;;4919380;29;20197;-71
2024/01/19 09:43:35;;;;;;;37.15;18.23;;;;;;;;;;4926838;29;20197;-71
2024/01/19 09:46:04;;;;;;;31.35;18.77;;;;;;;;;;4912054;29;20204;-72
2024/01/19 09:48:35;;;;;;;32.55;18.73;;;;;;;;;;4939520;29;20635;-73
2024/01/19 09:51:09;;;;;;;28.95;17.67;;;;;;;;;;4941171;29;20252;-74
2024/01/19 09:53:43;;;;;;;34.72;18.65;;;;;;;;;;4951577;29;20249;-74
2024/01/19 09:56:11;;;;;;;46.85;25.55;;;;;;;;;;4937859;29;20242;-73
2024/01/19 09:58:40;;;;;;;28.77;16.83;;;;;;;;;;4905469;29;20257;-72
2024/01/19 10:01:11;;;;;;;36.22;18.88;;;;;;;;;;4941485;29;20277;-73
2024/01/19 10:03:42;;;;;;;28.13;17.67;;;;;;;;;;4927464;29;20311;-73
2024/01/19 10:06:11;;;;;;;30.00;16.95;;;;;;;;;;4908067;29;20277;-71
2024/01/19 10:08:41;;;;;;;25.40;15.35;;;;;;;;;;4930956;29;20205;-71
2024/01/19 10:11:09;;;;;;;25.90;14.25;;;;;;;;;;4930693;29;20217;-72
2024/01/19 10:13:38;;;;;;;23.92;14.95;;;;;;;;;;4936175;29;20217;-70
2024/01/19 10:16:07;;;;;;;22.08;13.18;;;;;;;;;;4916596;29;20574;-72
2024/01/19 10:18:35;;;;;;;25.77;14.68;;;;;;;;;;4934422;29;20280;-70
2024/01/19 10:21:05;;;;;;;26.55;12.80;;;;;;;;;;4927279;29;20366;-70
2024/01/19 10:23:33;;;;;;;22.77;13.25;;;;;;;;;;4933162;29;20261;-71
2024/01/19 10:26:14;;;;;;;28.75;14.52;;;;;;;;;;4930542;29;20205;-71
2024/01/19 10:28:43;;;;;;;28.05;12.15;;;;;;;;;;4926397;29;20711;-71
2024/01/19 10:31:15;;;;;;;26.92;14.63;;;;;;;;;;4930025;29;20526;-72
2024/01/19 10:33:50;;;;;;;23.38;13.18;;;;;;;;;;4929561;29;20217;-72
2024/01/19 10:36:19;;;;;;;25.63;13.77;;;;;;;;;;4916163;29;20215;-71
2024/01/19 10:38:48;;;;;;;21.27;13.30;;;;;;;;;;4925637;29;20259;-72
2024/01/19 10:41:18;;;;;;;18.75;12.63;;;;;;;;;;4934669;29;20211;-72
2024/01/19 10:43:46;;;;;;;21.10;13.55;;;;;;;;;;4935346;29;20192;-73
2024/01/19 10:46:20;;;;;;;22.23;12.75;;;;;;;;;;4933388;29;20231;-72
2024/01/19 10:48:50;;;;;;;21.88;13.05;;;;;;;;;;4918330;29;20197;-70
2024/01/19 10:51:19;;;;;;;18.92;11.75;;;;;;;;;;4924523;29;20235;-69
2024/01/19 10:53:48;;;;;;;25.90;13.18;;;;;;;;;;4947631;29;20264;-68
2024/01/19 10:56:22;;;;;;;24.92;13.13;;;;;;;;;;4943280;29;20281;-69
2024/01/19 10:58:50;;;;;;;22.05;12.80;;;;;;;;;;4941423;29;20280;-69
2024/01/19 11:01:19;;;;;;;21.48;13.60;;;;;;;;;;4942070;29;20295;-70
2024/01/19 11:03:47;;;;;;;18.05;11.95;;;;;;;;;;4927716;29;20286;-69
2024/01/19 11:06:15;;;;;;;19.15;12.27;;;;;;;;;;4933617;29;20264;-69
2024/01/19 11:08:43;;;;;;;21.88;14.45;;;;;;;;;;4944729;29;20283;-69
2024/01/19 11:11:12;;;;;;;23.15;14.40;;;;;;;;;;4935716;29;20310;-69
2024/01/19 11:13:44;;;;;;;15.55;12.98;;;;;;;;;;4938900;29;20280;-69
2024/01/19 11:16:14;;;;;;;30.85;16.48;;;;;;;;;;4929346;29;20639;-68
2024/01/19 11:18:44;;;;;;;26.05;14.50;;;;;;;;;;4937109;29;20272;-69
2024/01/19 11:21:12;;;;;;;22.58;14.30;;;;;;;;;;4929452;29;20368;-69
2024/01/19 11:23:41;;;;;;;19.00;13.48;;;;;;;;;;4939753;29;20268;-69
2024/01/19 11:26:13;;;;;;;22.25;13.65;;;;;;;;;;4932849;29;20264;-70
2024/01/19 11:28:47;;;;;;;15.63;11.55;;;;;;;;;;4937233;29;20277;-69
2024/01/19 11:31:16;;;;;;;17.65;13.05;;;;;;;;;;4931263;29;20304;-70
2024/01/19 11:33:45;;;;;;;16.15;13.98;;;;;;;;;;4929970;29;20312;-70
2024/01/19 11:36:33;;;;;;;23.95;14.82;;;;;;;;;;4940914;29;20292;-71
2024/01/19 11:39:01;;;;;;;28.85;15.50;;;;;;;;;;4944574;29;20268;-69
2024/01/19 11:41:44;;;;;;;16.20;14.43;;;;;;;;;;4936835;29;20324;-70
2024/01/19 11:44:34;;;;;;;18.45;15.80;;;;;;;;;;4912732;29;20288;-70
2024/01/19 11:47:02;;;;;;;24.73;16.95;;;;;;;;;;4939911;29;20716;-71
2024/01/19 11:49:48;;;;;;;17.73;16.00;;;;;;;;;;4933647;29;20292;-70
2024/01/19 11:52:35;;;;;;;23.65;17.65;;;;;;;;;;4930067;29;20602;-70
2024/01/19 11:55:18;;;;;;;26.50;20.10;;;;;;;;;;4935501;29;20257;-70
2024/01/19 11:57:47;;;;;;;20.90;17.48;;;;;;;;;;4907312;29;20275;-70
2024/01/19 12:00:18;;;;;;;30.73;21.30;;;;;;;;;;4932215;29;20280;-70
2024/01/19 12:02:47;;;;;;;20.38;16.23;;;;;;;;;;4909975;29;20763;-72
2024/01/19 12:05:20;;;;;;;20.20;17.35;;;;;;;;;;4925284;29;20209;-72
2024/01/19 12:07:48;;;;;;;22.10;16.23;;;;;;;;;;4917816;29;20190;-71
2024/01/19 12:10:18;;;;;;;19.77;17.67;;;;;;;;;;4929366;29;20216;-71
2024/01/19 12:12:49;;;;;;;20.45;17.20;;;;;;;;;;4924875;29;20675;-72
2024/01/19 12:15:19;;;;;;;20.55;18.40;;;;;;;;;;4921366;29;20236;-74
2024/01/19 12:17:47;;;;;;;22.83;20.45;;;;;;;;;;4923164;29;20201;-74
2024/01/19 12:20:17;;;;;;;23.13;19.30;;;;;;;;;;4922815;29;20212;-74
2024/01/19 12:22:46;;;;;;;19.30;17.50;;;;;;;;;;4922727;29;20219;-73
2024/01/19 12:25:15;;;;;;;20.13;18.33;;;;;;;;;;4924463;29;20212;-73
2024/01/19 12:27:43;;;;;;;19.52;17.55;;;;;;;;;;4922969;29;20224;-72
2024/01/19 12:30:12;;;;;;;20.73;18.80;;;;;;;;;;4922546;29;20209;-72
2024/01/19 12:32:42;;;;;;;19.73;17.70;;;;;;;;;;4923803;29;20216;-71
2024/01/19 12:35:11;;;;;;;20.48;18.38;;;;;;;;;;4922417;29;20271;-73
2024/01/19 12:37:39;;;;;;;21.17;18.92;;;;;;;;;;4924956;29;20255;-73
2024/01/19 12:40:15;;;;;;;19.38;17.17;;;;;;;;;;4924346;29;20205;-74
2024/01/19 12:42:44;;;;;;;18.40;16.42;;;;;;;;;;4925018;29;20667;-74
2024/01/19 12:45:12;;;;;;;20.70;18.50;;;;;;;;;;4924109;29;20209;-73
2024/01/19 12:47:43;;;;;;;20.10;18.17;;;;;;;;;;4925250;29;20205;-71
2024/01/19 12:50:12;;;;;;;20.77;18.73;;;;;;;;;;4907191;29;20193;-73
2024/01/19 12:52:40;;;;;;;18.90;17.10;;;;;;;;;;4925973;29;20247;-71
2024/01/19 12:55:09;;;;;;;18.92;17.02;;;;;;;;;;4924097;29;20211;-71
2024/01/19 12:57:37;;;;;;;18.85;16.10;;;;;;;;;;4925647;29;20646;-71
2024/01/19 13:00:07;;;;;;;23.88;16.13;;;;;;;;;;4925552;29;20209;-71
2024/01/19 13:02:35;;;;;;;23.30;15.40;;;;;;;;;;4915855;29;20537;-71
2024/01/19 13:05:06;;;;;;;18.02;13.75;;;;;;;;;;4934674;29;20264;-73
2024/01/19 13:07:34;;;;;;;21.83;14.60;;;;;;;;;;4933653;29;20605;-72
2024/01/19 13:10:03;;;;;;;17.98;15.95;;;;;;;;;;4906350;29;20272;-72
2024/01/19 13:12:32;;;;;;;19.00;15.43;;;;;;;;;;4936649;29;20296;-73
2024/01/19 13:15:06;;;;;;;19.30;14.27;;;;;;;;;;4931986;29;21676;-71
2024/01/19 13:17:35;;;;;;;24.73;14.93;;;;;;;;;;4940764;29;20629;-71
2024/01/19 13:20:04;;;;;;;24.63;20.60;;;;;;;;;;4912913;29;20259;-73
2024/01/19 13:22:35;;;;;;;20.60;16.20;;;;;;;;;;4926572;29;20196;-71
2024/01/19 13:25:04;;;;;;;26.15;17.95;;;;;;;;;;4926647;29;20196;-73
2024/01/19 13:27:34;;;;;;;21.52;14.05;;;;;;;;;;4928804;29;20571;-71
2024/01/19 13:30:03;;;;;;;16.67;11.68;;;;;;;;;;4926689;29;20205;-72
2024/01/19 13:32:31;;;;;;;19.58;13.13;;;;;;;;;;4925754;29;20229;-73
2024/01/19 13:34:59;;;;;;;15.05;10.20;;;;;;;;;;4924255;29;20239;-72
2024/01/19 13:37:29;;;;;;;15.13;10.98;;;;;;;;;;4926956;29;20208;-71
2024/01/19 13:39:59;;;;;;;13.00;10.18;;;;;;;;;;4906752;29;20605;-71
2024/01/19 13:42:27;;;;;;;16.75;10.60;;;;;;;;;;4925153;29;20204;-71
2024/01/19 13:44:55;;;;;;;17.17;10.73;;;;;;;;;;4925792;29;20211;-71
2024/01/19 13:47:23;;;;;;;12.13;10.05;;;;;;;;;;4925581;29;20204;-70
2024/01/19 13:49:51;;;;;;;24.50;18.38;;;;;;;;;;4924402;29;20205;-72
2024/01/19 13:52:20;;;;;;;16.92;13.88;;;;;;;;;;4925735;29;20228;-72
2024/01/19 13:54:48;;;;;;;16.67;14.70;;;;;;;;;;4925101;29;20582;-72
2024/01/19 13:57:18;;;;;;;19.92;16.65;;;;;;;;;;4925235;29;20213;-73
2024/01/19 13:59:46;;;;;;;21.67;16.73;;;;;;;;;;4925591;29;20446;-73
2024/01/19 14:02:15;;;;;;;15.93;11.98;;;;;;;;;;4923857;29;20241;-73
2024/01/19 14:04:43;;;;;;;17.02;13.68;;;;;;;;;;4924888;29;20227;-71
2024/01/19 14:07:14;;;;;;;16.40;14.05;;;;;;;;;;4926357;29;20214;-72
2024/01/19 14:09:42;;;;;;;11.98;10.50;;;;;;;;;;4925829;29;20678;-71
2024/01/19 14:12:13;;;;;;;17.00;11.45;;;;;;;;;;4915708;29;20754;-69
2024/01/19 14:14:43;;;;;;;16.45;11.55;;;;;;;;;;4906062;29;20287;-71
2024/01/19 14:17:13;;;;;;;17.73;11.25;;;;;;;;;;4940284;29;20260;-71
2024/01/19 14:19:41;;;;;;;15.82;11.93;;;;;;;;;;4942587;29;20265;-71
2024/01/19 14:22:10;;;;;;;15.60;10.85;;;;;;;;;;4929447;29;20700;-71
2024/01/19 14:24:38;;;;;;;13.48;9.75;;;;;;;;;;4933095;29;20699;-71
2024/01/19 14:27:07;;;;;;;11.35;9.35;;;;;;;;;;4929268;29;20724;-71